Time;durP1;ratioP1;P1;durP2;ratioP2;P2;SDS_P1;SDS_P2;PMS_P1;PMS_P2;Temp;Humidity;BMP_temperature;BMP_pressure;BME280_temperature;BME280_humidity;BME280_pressure;Samples;Min_cycle;Max_cycle;Signal;HPM_P1;HPM_P2
2022/01/19 00:01:22;;;;;;;75.82;35.20;;;5.10;99.90;;;;;;5058421;28;20032;-66
2022/01/19 00:03:47;;;;;;;79.18;35.33;;;5.10;99.90;;;;;;5058392;28;20041;-66
2022/01/19 00:06:13;;;;;;;76.90;35.95;;;5.10;99.90;;;;;;5060428;28;20044;-67
2022/01/19 00:08:39;;;;;;;76.10;34.88;;;5.10;99.90;;;;;;5060381;28;20044;-67
2022/01/19 00:11:06;;;;;;;76.72;35.47;;;5.10;99.90;;;;;;5057749;28;20052;-67
2022/01/19 00:13:31;;;;;;;73.95;35.92;;;5.10;99.90;;;;;;5063190;28;20055;-66
2022/01/19 00:15:58;;;;;;;73.03;35.47;;;5.10;99.90;;;;;;5059645;28;20049;-66
2022/01/19 00:18:25;;;;;;;77.72;33.97;;;5.10;99.90;;;;;;5059343;28;20090;-66
2022/01/19 00:20:54;;;;;;;72.75;33.55;;;5.10;99.90;;;;;;5062091;28;20497;-66
2022/01/19 00:23:20;;;;;;;70.50;32.20;;;5.10;99.90;;;;;;5057757;28;20052;-66
2022/01/19 00:25:48;;;;;;;59.10;28.45;;;5.10;99.90;;;;;;5059333;28;20041;-66
2022/01/19 00:28:14;;;;;;;71.13;29.52;;;5.10;99.90;;;;;;5064833;28;20034;-66
2022/01/19 00:30:41;;;;;;;69.15;28.88;;;5.10;99.90;;;;;;5063024;28;20076;-66
2022/01/19 00:33:07;;;;;;;69.15;29.83;;;5.10;99.90;;;;;;5059790;28;20051;-66
2022/01/19 00:35:35;;;;;;;67.18;30.45;;;5.10;99.90;;;;;;5062986;28;20439;-66
2022/01/19 00:38:02;;;;;;;60.25;28.15;;;5.00;99.90;;;;;;5063323;28;20479;-66
2022/01/19 00:40:28;;;;;;;60.70;29.17;;;4.90;99.90;;;;;;5060062;28;20485;-66
2022/01/19 00:42:54;;;;;;;61.63;29.83;;;4.90;99.90;;;;;;5061533;28;20032;-67
2022/01/19 00:45:21;;;;;;;61.75;30.00;;;4.80;99.90;;;;;;5062169;28;20036;-67
2022/01/19 00:47:47;;;;;;;64.13;29.38;;;4.90;99.90;;;;;;5061685;28;20040;-66
2022/01/19 00:50:16;;;;;;;64.45;30.15;;;4.80;99.90;;;;;;5064007;28;20416;-66
2022/01/19 00:52:42;;;;;;;61.33;28.98;;;4.90;99.90;;;;;;5062021;28;20044;-66
2022/01/19 00:55:11;;;;;;;75.10;29.52;;;4.90;99.90;;;;;;5060957;28;20032;-66
2022/01/19 00:57:37;;;;;;;70.35;30.73;;;4.90;99.90;;;;;;5060623;28;20044;-66
2022/01/19 01:00:09;;;;;;;67.93;28.92;;;4.90;99.90;;;;;;5063647;28;20360;-66
2022/01/19 01:02:35;;;;;;;82.25;31.02;;;4.90;99.90;;;;;;5056681;28;20185;-66
2022/01/19 01:05:01;;;;;;;76.80;29.65;;;4.90;99.90;;;;;;5063339;28;20119;-66
2022/01/19 01:07:27;;;;;;;79.43;31.67;;;4.90;99.90;;;;;;5062810;28;20036;-66
2022/01/19 01:09:54;;;;;;;80.18;31.58;;;4.90;99.90;;;;;;5058888;28;20100;-67
2022/01/19 01:12:24;;;;;;;74.45;31.63;;;5.00;99.90;;;;;;5061033;28;20522;-66
2022/01/19 01:20:19;;;;;;;90.03;32.17;;;4.90;99.90;;;;;;5062533;28;20468;-66
2022/01/19 01:22:46;;;;;;;80.82;30.80;;;5.00;99.90;;;;;;5063719;28;20037;-66
2022/01/19 01:25:12;;;;;;;76.45;31.63;;;5.00;99.90;;;;;;5065699;28;20496;-66
2022/01/19 01:27:38;;;;;;;90.15;32.63;;;4.90;99.90;;;;;;5065814;28;20051;-66
2022/01/19 01:30:06;;;;;;;76.25;30.20;;;5.00;99.90;;;;;;5063652;28;20037;-66
2022/01/19 01:32:32;;;;;;;79.35;31.92;;;4.90;99.90;;;;;;5061708;28;20036;-66
2022/01/19 01:34:58;;;;;;;81.72;32.90;;;4.90;99.90;;;;;;5064363;28;20056;-66
2022/01/19 01:37:24;;;;;;;73.35;31.77;;;5.00;99.90;;;;;;5062198;28;20033;-66
2022/01/19 01:39:49;;;;;;;77.00;32.88;;;4.90;99.90;;;;;;5063755;28;20033;-66
2022/01/19 01:42:19;;;;;;;80.00;33.08;;;4.90;99.90;;;;;;5064186;28;20055;-66
2022/01/19 01:44:49;;;;;;;81.68;31.23;;;4.90;99.90;;;;;;5064082;28;20218;-66
2022/01/19 01:47:17;;;;;;;68.43;30.88;;;4.90;99.90;;;;;;5066962;28;20393;-66
2022/01/19 01:53:25;;;;;;;71.80;30.17;;;4.90;99.90;;;;;;5062374;28;20040;-66
2022/01/19 01:55:16;;;;;;;67.30;29.60;;;4.90;99.90;;;;;;5064944;28;20457;-66
2022/01/19 01:57:42;;;;;;;64.88;29.85;;;4.80;99.90;;;;;;5063252;28;20506;-66
2022/01/19 02:00:11;;;;;;;74.82;31.23;;;4.80;99.90;;;;;;5064698;28;20046;-66
2022/01/19 02:02:39;;;;;;;63.95;30.20;;;4.80;99.90;;;;;;5064422;28;20095;-67
2022/01/19 02:05:09;;;;;;;76.82;30.92;;;4.70;99.90;;;;;;5064934;28;20140;-67
2022/01/19 02:10:14;;;;;;;70.93;32.25;;;4.70;99.90;;;;;;5060311;28;20047;-67
2022/01/19 02:23:45;;;;;;;81.23;32.43;;;4.50;99.90;;;;;;5063716;28;20055;-66
2022/01/19 02:26:17;;;;;;;77.90;32.53;;;4.50;99.90;;;;;;5064374;28;20295;-66
2022/01/19 02:42:06;;;;;;;87.35;33.25;;;4.40;99.90;;;;;;5060601;28;20015;-66
2022/01/19 02:49:51;;;;;;;78.03;33.70;;;4.40;99.90;;;;;;5060400;28;20500;-66
2022/01/19 02:52:17;;;;;;;81.70;34.38;;;4.40;99.90;;;;;;5062370;28;20476;-66
2022/01/19 02:54:44;;;;;;;82.88;32.75;;;4.40;99.90;;;;;;5065781;28;20065;-66
2022/01/19 02:57:12;;;;;;;86.05;34.08;;;4.40;99.90;;;;;;5062052;28;20043;-66
2022/01/19 03:10:17;;;;;;;92.23;36.03;;;4.40;99.90;;;;;;5061714;28;20063;-66
2022/01/19 03:12:43;;;;;;;75.45;31.88;;;4.30;99.90;;;;;;5062501;28;20530;-66
2022/01/19 03:15:11;;;;;;;81.72;32.95;;;4.30;99.90;;;;;;5062890;28;20043;-66
2022/01/19 03:17:37;;;;;;;76.43;33.65;;;4.40;99.90;;;;;;5063298;28;20060;-66
2022/01/19 03:20:04;;;;;;;79.38;34.45;;;4.40;99.90;;;;;;5063713;28;20037;-66
2022/01/19 03:22:37;;;;;;;75.75;33.22;;;4.30;99.90;;;;;;5058885;28;20085;-66
2022/01/19 03:25:10;;;;;;;71.28;32.63;;;4.30;99.90;;;;;;5062207;28;20098;-66
2022/01/19 03:27:36;;;;;;;62.90;31.27;;;4.30;99.90;;;;;;5056828;28;20210;-66
2022/01/19 03:30:03;;;;;;;71.97;32.15;;;4.20;99.90;;;;;;5062237;28;20430;-66
2022/01/19 03:32:28;;;;;;;72.57;33.83;;;4.20;99.90;;;;;;5062261;28;20396;-66
2022/01/19 03:34:54;;;;;;;65.63;32.03;;;4.20;99.90;;;;;;5064046;28;20040;-67
2022/01/19 03:37:19;;;;;;;65.15;31.20;;;4.20;99.90;;;;;;5062141;28;20107;-67
2022/01/19 03:39:45;;;;;;;74.55;32.00;;;4.10;99.90;;;;;;5061137;28;20142;-67
2022/01/19 03:42:11;;;;;;;71.50;31.45;;;4.10;99.90;;;;;;5063535;28;20032;-67
2022/01/19 03:44:37;;;;;;;76.88;32.15;;;4.10;99.90;;;;;;5057532;28;20036;-67
2022/01/19 03:47:04;;;;;;;75.18;33.08;;;4.00;99.90;;;;;;5077305;28;20537;-67
2022/01/19 03:49:33;;;;;;;66.60;30.02;;;4.00;99.90;;;;;;5058247;28;20124;-67
2022/01/19 03:52:02;;;;;;;74.53;32.17;;;4.00;99.90;;;;;;5063036;28;20059;-67
2022/01/19 03:54:37;;;;;;;66.18;32.63;;;3.90;99.90;;;;;;5061280;28;20491;-67
2022/01/19 03:57:04;;;;;;;74.97;32.05;;;3.90;99.90;;;;;;5062233;28;20051;-67
2022/01/19 03:59:30;;;;;;;85.68;34.67;;;3.90;99.90;;;;;;5062564;28;20044;-67
2022/01/19 04:01:57;;;;;;;87.30;33.88;;;3.90;99.90;;;;;;5056894;28;20036;-67
2022/01/19 04:09:27;;;;;;;;;;;3.80;99.90;;;;;;5063850;28;20378;-67
2022/01/19 04:11:54;;;;;;;66.55;30.65;;;3.80;99.90;;;;;;5066906;28;19920;-67
2022/01/19 04:14:22;;;;;;;75.95;34.35;;;3.80;99.90;;;;;;5056607;28;20033;-67
2022/01/19 04:16:54;;;;;;;74.63;32.67;;;3.70;99.90;;;;;;5058761;28;20052;-67
2022/01/19 04:19:27;;;;;;;75.05;32.72;;;3.80;99.90;;;;;;5059001;28;20033;-67
2022/01/19 04:21:55;;;;;;;64.88;31.15;;;3.80;99.90;;;;;;5062796;28;20151;-67
2022/01/19 04:24:22;;;;;;;77.55;34.30;;;3.70;99.90;;;;;;5056776;28;20076;-67
2022/01/19 04:26:58;;;;;;;67.45;31.05;;;3.70;99.90;;;;;;5061724;28;20123;-67
2022/01/19 04:29:25;;;;;;;70.22;33.15;;;3.70;99.90;;;;;;5062809;28;20051;-67
2022/01/19 04:31:51;;;;;;;63.78;31.83;;;3.60;99.90;;;;;;5057832;28;20091;-67
2022/01/19 04:34:18;;;;;;;60.90;30.38;;;3.60;99.90;;;;;;5051847;28;20620;-67
2022/01/19 05:01:38;;;;;;;70.27;31.87;;;3.40;99.90;;;;;;5060850;28;20078;-66
2022/01/19 05:06:11;;;;;;;69.05;30.70;;;3.40;99.90;;;;;;5058020;28;20041;-67
2022/01/19 05:13:59;;;;;;;56.70;31.27;;;3.40;99.90;;;;;;5060540;28;20052;-67
2022/01/19 05:16:25;;;;;;;62.65;32.15;;;3.40;99.90;;;;;;5057786;28;20064;-67
2022/01/19 05:18:52;;;;;;;72.20;32.58;;;3.40;99.90;;;;;;5070331;28;20071;-67
2022/01/19 05:21:18;;;;;;;66.18;33.65;;;3.40;99.90;;;;;;5059747;28;20114;-67
2022/01/19 05:23:44;;;;;;;66.85;34.50;;;3.40;99.90;;;;;;5064148;28;20056;-67
2022/01/19 05:26:10;;;;;;;62.63;33.30;;;3.50;99.90;;;;;;5069001;28;20036;-67
2022/01/19 05:28:37;;;;;;;67.68;33.50;;;3.50;99.90;;;;;;5063142;28;20036;-67
2022/01/19 05:31:03;;;;;;;66.03;32.78;;;3.50;99.90;;;;;;5066525;28;20059;-67
2022/01/19 05:33:28;;;;;;;73.70;35.00;;;3.50;99.90;;;;;;5061374;28;20032;-67
2022/01/19 05:35:54;;;;;;;72.72;36.50;;;3.50;99.90;;;;;;5069639;28;20040;-66
2022/01/19 05:38:20;;;;;;;69.60;35.15;;;3.50;99.90;;;;;;5058726;28;20036;-67
2022/01/19 05:40:45;;;;;;;70.03;34.53;;;3.50;99.90;;;;;;5064301;28;20116;-67
2022/01/19 05:43:11;;;;;;;65.32;33.10;;;3.60;99.90;;;;;;5056869;28;20067;-67
2022/01/19 05:45:37;;;;;;;61.42;33.35;;;3.50;99.90;;;;;;5066306;28;20493;-67
2022/01/19 05:48:03;;;;;;;64.80;33.70;;;3.60;99.90;;;;;;5066026;28;20040;-67
2022/01/19 05:50:29;;;;;;;57.05;31.98;;;3.60;99.90;;;;;;5058199;28;20162;-67
2022/01/19 05:52:55;;;;;;;59.00;33.83;;;3.50;99.90;;;;;;5063461;28;20126;-67
2022/01/19 05:55:20;;;;;;;63.33;32.55;;;3.50;99.90;;;;;;5064831;28;20047;-67
2022/01/19 05:57:46;;;;;;;69.78;35.65;;;3.60;99.90;;;;;;5055058;28;20505;-67
2022/01/19 06:00:13;;;;;;;70.30;35.75;;;3.60;99.90;;;;;;5059716;28;20045;-67
2022/01/19 06:02:39;;;;;;;62.28;33.72;;;3.60;99.90;;;;;;5062438;28;20033;-67
2022/01/19 06:05:06;;;;;;;63.45;34.80;;;3.60;99.90;;;;;;5062106;28;20039;-67
2022/01/19 06:07:40;;;;;;;63.80;34.72;;;3.60;99.90;;;;;;5067064;28;20062;-67
2022/01/19 06:10:42;;;;;;;64.10;33.65;;;3.60;99.90;;;;;;5064773;28;20052;-67
2022/01/19 06:12:57;;;;;;;61.17;33.47;;;3.60;99.90;;;;;;5060060;28;20063;-66
2022/01/19 06:15:22;;;;;;;61.72;32.25;;;3.60;99.90;;;;;;5062585;28;20060;-66
2022/01/19 06:17:48;;;;;;;61.55;34.42;;;3.60;99.90;;;;;;5056885;28;20048;-66
2022/01/19 06:20:14;;;;;;;68.45;33.72;;;3.60;99.90;;;;;;5064917;28;20102;-66
2022/01/19 06:22:39;;;;;;;60.67;32.92;;;3.60;99.90;;;;;;5054795;28;20072;-66
2022/01/19 06:25:06;;;;;;;64.28;34.53;;;3.60;99.90;;;;;;5061039;28;20386;-66
2022/01/19 06:27:31;;;;;;;61.65;33.28;;;3.60;99.90;;;;;;5064241;28;20120;-66
2022/01/19 06:29:57;;;;;;;56.60;31.38;;;3.60;99.90;;;;;;5061032;28;20159;-66
2022/01/19 06:32:23;;;;;;;57.80;32.28;;;3.60;99.90;;;;;;5054102;28;20476;-67
2022/01/19 06:34:49;;;;;;;60.58;33.13;;;3.60;99.90;;;;;;5059614;28;20047;-67
2022/01/19 06:37:14;;;;;;;60.63;32.67;;;3.60;99.90;;;;;;5058684;28;20119;-67
2022/01/19 06:39:40;;;;;;;57.45;32.00;;;3.60;99.90;;;;;;5058526;28;20048;-67
2022/01/19 06:42:06;;;;;;;61.63;35.13;;;3.60;99.90;;;;;;5064670;28;20048;-67
2022/01/19 06:44:32;;;;;;;54.83;30.98;;;3.60;99.90;;;;;;5062553;28;20078;-67
2022/01/19 06:46:58;;;;;;;60.95;33.00;;;3.60;99.90;;;;;;5060903;28;20459;-67
2022/01/19 06:49:24;;;;;;;61.90;32.33;;;3.60;99.90;;;;;;5065236;28;20041;-67
2022/01/19 06:51:50;;;;;;;52.70;29.50;;;3.60;99.90;;;;;;5063185;28;20045;-67
2022/01/19 06:54:15;;;;;;;53.40;29.90;;;3.60;99.90;;;;;;5058356;28;20036;-67
2022/01/19 06:56:41;;;;;;;60.22;31.80;;;3.60;99.90;;;;;;5062619;28;20078;-67
2022/01/19 06:59:07;;;;;;;58.40;30.45;;;3.60;99.90;;;;;;5056893;28;20147;-67
2022/01/19 07:01:34;;;;;;;57.03;30.60;;;3.60;99.90;;;;;;5062370;28;20033;-67
2022/01/19 07:04:02;;;;;;;56.13;31.75;;;3.60;99.90;;;;;;5061883;28;20045;-67
2022/01/19 07:06:27;;;;;;;57.08;31.05;;;3.60;99.90;;;;;;5059189;28;20037;-67
2022/01/19 07:08:53;;;;;;;52.65;30.58;;;3.60;99.90;;;;;;5057719;28;20052;-67
2022/01/19 07:11:19;;;;;;;53.20;29.17;;;3.60;99.90;;;;;;5056947;28;20147;-67
2022/01/19 07:13:44;;;;;;;53.60;30.17;;;3.60;99.90;;;;;;5055757;28;20043;-67
2022/01/19 07:16:10;;;;;;;58.00;30.95;;;3.60;99.90;;;;;;5058604;28;20097;-67
2022/01/19 07:18:36;;;;;;;54.47;29.17;;;3.70;99.90;;;;;;5057260;28;20077;-67
2022/01/19 07:21:02;;;;;;;55.03;31.13;;;3.70;99.90;;;;;;5064758;28;20040;-67
2022/01/19 07:23:27;;;;;;;53.58;29.63;;;3.70;99.90;;;;;;5061222;28;20033;-67
2022/01/19 07:25:53;;;;;;;52.28;29.13;;;3.70;99.90;;;;;;5058692;28;20040;-67
2022/01/19 07:28:19;;;;;;;53.63;29.25;;;3.70;99.90;;;;;;5061787;28;20045;-67
2022/01/19 07:30:44;;;;;;;51.65;28.23;;;3.70;99.90;;;;;;5057999;28;20062;-67
2022/01/19 07:33:11;;;;;;;50.45;28.90;;;3.70;99.90;;;;;;5055426;28;20071;-67
2022/01/19 07:35:37;;;;;;;48.70;29.48;;;3.70;99.90;;;;;;5061949;28;20594;-67
2022/01/19 07:38:03;;;;;;;50.88;29.30;;;3.70;99.90;;;;;;5057254;28;20039;-67
2022/01/19 07:40:29;;;;;;;51.72;29.17;;;3.70;99.90;;;;;;5053736;28;20151;-67
2022/01/19 07:42:55;;;;;;;58.33;29.30;;;3.70;99.90;;;;;;5043535;28;20497;-67
2022/01/19 07:45:20;;;;;;;45.60;27.88;;;3.70;99.90;;;;;;5058166;28;20055;-67
2022/01/19 07:47:46;;;;;;;50.30;28.83;;;3.60;99.90;;;;;;5056430;28;20044;-67
2022/01/19 07:50:12;;;;;;;48.10;26.77;;;3.60;99.90;;;;;;5059811;28;20056;-67
2022/01/19 07:52:38;;;;;;;50.10;28.92;;;3.70;99.90;;;;;;5060987;28;20047;-67
2022/01/19 07:55:04;;;;;;;54.35;29.15;;;3.70;99.90;;;;;;5052900;28;20040;-67
2022/01/19 07:57:30;;;;;;;47.72;28.13;;;3.60;99.90;;;;;;5061687;28;20481;-67
2022/01/19 07:59:55;;;;;;;55.92;28.65;;;3.60;99.90;;;;;;5061386;28;20052;-67
2022/01/19 08:02:21;;;;;;;48.53;29.23;;;3.60;99.90;;;;;;5054475;28;20184;-67
2022/01/19 08:04:47;;;;;;;54.40;28.75;;;3.60;99.90;;;;;;5058414;28;20123;-67
2022/01/19 08:07:12;;;;;;;51.30;28.52;;;3.60;99.90;;;;;;5062277;28;20159;-67
2022/01/19 08:09:40;;;;;;;52.58;29.88;;;3.60;99.90;;;;;;5055926;28;20040;-67
2022/01/19 08:12:06;;;;;;;50.83;29.20;;;3.60;99.90;;;;;;5060949;28;20622;-67
2022/01/19 08:14:32;;;;;;;50.95;28.45;;;3.60;99.90;;;;;;5060052;28;20044;-67
2022/01/19 08:16:58;;;;;;;53.22;30.10;;;3.60;99.90;;;;;;5060255;28;20061;-67
2022/01/19 08:19:25;;;;;;;49.92;28.23;;;3.60;99.90;;;;;;5066227;28;20041;-67
2022/01/19 08:21:51;;;;;;;48.13;28.52;;;3.70;99.90;;;;;;5060250;28;20044;-67
2022/01/19 08:24:17;;;;;;;49.28;27.40;;;3.60;99.90;;;;;;5069013;28;20044;-67
2022/01/19 08:26:44;;;;;;;48.85;28.70;;;3.60;99.90;;;;;;5061006;28;20049;-67
2022/01/19 08:29:10;;;;;;;48.25;28.75;;;3.60;99.90;;;;;;5070543;28;20044;-67
2022/01/19 08:31:36;;;;;;;46.80;28.45;;;3.60;99.90;;;;;;5066671;28;20106;-67
2022/01/19 08:34:02;;;;;;;50.42;27.67;;;3.60;99.90;;;;;;5064910;28;20053;-67
2022/01/19 08:36:28;;;;;;;53.10;30.20;;;3.60;99.90;;;;;;5060325;28;20041;-67
2022/01/19 08:38:55;;;;;;;47.42;28.63;;;3.60;99.90;;;;;;5062953;28;20132;-67
2022/01/19 08:41:21;;;;;;;47.13;28.08;;;3.60;99.90;;;;;;5067836;28;20060;-67
2022/01/19 08:43:47;;;;;;;49.15;29.40;;;3.60;99.90;;;;;;5060412;28;20045;-67
2022/01/19 08:46:12;;;;;;;49.60;29.13;;;3.60;99.90;;;;;;5063285;28;20390;-67
2022/01/19 08:48:38;;;;;;;47.28;28.25;;;3.60;99.90;;;;;;5060184;28;20044;-67
2022/01/19 08:51:04;;;;;;;46.30;28.65;;;3.70;99.90;;;;;;5062833;28;20079;-67
2022/01/19 08:53:31;;;;;;;49.13;27.40;;;3.60;99.90;;;;;;5063817;28;20126;-67
2022/01/19 08:55:57;;;;;;;48.78;28.38;;;3.70;99.90;;;;;;5063412;28;20147;-67
2022/01/19 08:58:23;;;;;;;44.33;28.73;;;3.80;99.90;;;;;;5071405;28;20444;-67
2022/01/19 09:00:49;;;;;;;43.22;28.55;;;3.70;99.90;;;;;;5064993;28;20053;-67
2022/01/19 09:03:16;;;;;;;50.78;29.13;;;3.80;99.90;;;;;;5058636;28;20068;-67
2022/01/19 09:05:42;;;;;;;48.80;28.08;;;3.80;99.90;;;;;;5063541;28;20534;-67
2022/01/19 09:08:09;;;;;;;47.00;27.35;;;3.80;99.90;;;;;;5064101;28;20041;-67
2022/01/19 09:10:35;;;;;;;44.72;28.45;;;3.90;99.90;;;;;;5060789;28;20088;-67
2022/01/19 09:13:01;;;;;;;46.17;30.13;;;3.90;99.90;;;;;;5057228;28;20045;-67
2022/01/19 09:15:27;;;;;;;43.83;28.15;;;3.90;99.90;;;;;;5063983;28;20059;-67
2022/01/19 09:17:53;;;;;;;47.05;29.83;;;3.90;99.90;;;;;;5062902;28;20114;-67
2022/01/19 09:20:19;;;;;;;50.58;29.60;;;3.90;99.90;;;;;;5063589;28;20044;-68
2022/01/19 09:22:45;;;;;;;48.13;28.95;;;3.90;99.90;;;;;;5064413;28;20037;-67
2022/01/19 09:25:13;;;;;;;56.20;31.98;;;4.00;99.90;;;;;;5068017;28;20035;-67
2022/01/19 09:27:39;;;;;;;46.95;30.42;;;4.00;99.90;;;;;;5064672;28;20052;-67
2022/01/19 09:30:15;;;;;;;47.85;30.77;;;4.00;99.90;;;;;;5063413;28;20044;-67
2022/01/19 09:32:54;;;;;;;53.78;33.25;;;4.00;99.90;;;;;;5061213;28;20052;-67
2022/01/19 09:35:24;;;;;;;50.20;31.35;;;3.90;99.90;;;;;;5064984;28;20053;-67
2022/01/19 09:37:50;;;;;;;48.88;31.40;;;4.00;99.90;;;;;;5068629;28;20055;-67
2022/01/19 09:40:16;;;;;;;47.92;31.40;;;4.00;99.90;;;;;;5063981;28;20032;-67
2022/01/19 09:42:46;;;;;;;47.13;32.50;;;4.00;99.90;;;;;;5062001;28;20512;-67
2022/01/19 09:45:12;;;;;;;50.17;32.35;;;4.00;99.90;;;;;;5056602;28;20041;-67
2022/01/19 09:47:38;;;;;;;47.10;31.52;;;4.00;99.90;;;;;;5067639;28;20433;-67
2022/01/19 09:50:05;;;;;;;49.58;30.85;;;4.10;99.90;;;;;;5067157;28;20079;-67
2022/01/19 09:52:32;;;;;;;46.30;29.48;;;4.10;99.90;;;;;;5065994;28;20041;-67
2022/01/19 09:54:57;;;;;;;52.95;31.73;;;4.10;99.90;;;;;;5062590;28;20060;-67
2022/01/19 09:57:23;;;;;;;48.53;31.23;;;4.10;99.90;;;;;;5066484;28;20485;-67
2022/01/19 09:59:49;;;;;;;46.78;30.67;;;4.10;99.90;;;;;;5058806;28;20141;-67
2022/01/19 10:02:16;;;;;;;45.78;30.48;;;4.10;99.90;;;;;;5062792;28;20060;-67
2022/01/19 10:04:46;;;;;;;49.67;30.42;;;4.20;99.90;;;;;;5064233;28;20079;-67
2022/01/19 10:07:24;;;;;;;52.17;31.92;;;4.20;99.90;;;;;;5060985;28;20033;-67
2022/01/19 10:09:51;;;;;;;47.60;29.65;;;4.20;99.90;;;;;;5068851;28;20056;-67
2022/01/19 10:18:11;;;;;;;49.25;31.00;;;4.30;99.90;;;;;;5063865;28;20103;-67
2022/01/19 10:20:37;;;;;;;48.75;31.85;;;4.30;99.90;;;;;;5059704;28;20047;-67
2022/01/19 10:23:03;;;;;;;48.67;33.08;;;4.30;99.90;;;;;;5068930;28;20041;-67
2022/01/19 10:25:49;;;;;;;50.97;33.22;;;4.40;99.90;;;;;;5061318;28;20131;-67
2022/01/19 10:28:15;;;;;;;50.22;31.30;;;4.40;99.90;;;;;;5063196;28;20029;-67
2022/01/19 10:30:41;;;;;;;47.30;32.53;;;4.40;99.90;;;;;;5061229;28;20055;-67
2022/01/19 10:33:06;;;;;;;52.20;33.90;;;4.40;99.90;;;;;;5058031;28;20166;-67
2022/01/19 10:35:38;;;;;;;55.20;34.58;;;4.50;99.90;;;;;;5061522;28;20094;-67
2022/01/19 10:38:08;;;;;;;54.40;35.38;;;4.40;99.90;;;;;;5066830;28;20112;-67
2022/01/19 10:40:35;;;;;;;53.15;36.90;;;4.50;99.90;;;;;;5060619;28;20045;-67
2022/01/19 10:43:25;;;;;;;53.53;33.35;;;4.50;99.90;;;;;;5066654;28;20103;-67
2022/01/19 10:45:50;;;;;;;54.15;35.67;;;4.50;99.90;;;;;;5064174;28;20041;-67
2022/01/19 10:48:38;;;;;;;54.47;35.55;;;4.50;99.90;;;;;;5055752;28;20036;-67
2022/01/19 10:51:16;;;;;;;50.47;37.10;;;4.50;99.90;;;;;;5059166;28;20110;-67
2022/01/19 10:53:45;;;;;;;53.40;37.65;;;4.50;99.90;;;;;;5061013;28;20052;-67
2022/01/19 10:56:29;;;;;;;56.35;36.80;;;4.60;99.90;;;;;;5063391;28;20061;-67
2022/01/19 10:59:00;;;;;;;55.97;36.75;;;4.60;99.90;;;;;;5061687;28;20432;-67
2022/01/19 11:01:35;;;;;;;61.60;37.88;;;4.60;99.90;;;;;;5066474;28;20132;-67
2022/01/19 11:04:42;;;;;;;56.90;36.10;;;4.60;99.90;;;;;;5058973;28;20091;-67
2022/01/19 11:07:11;;;;;;;58.88;37.50;;;4.70;99.90;;;;;;5025890;28;20037;-67
2022/01/19 11:09:56;;;;;;;58.38;38.65;;;4.70;99.90;;;;;;5055532;28;20060;-67
2022/01/19 11:12:25;;;;;;;62.58;39.67;;;4.70;99.90;;;;;;5062912;28;20063;-67
2022/01/19 11:14:51;;;;;;;61.05;40.00;;;4.70;99.90;;;;;;5063075;28;20063;-67
2022/01/19 11:17:16;;;;;;;61.90;40.15;;;4.70;99.90;;;;;;5064462;28;20053;-67
2022/01/19 11:19:43;;;;;;;65.57;39.08;;;4.60;99.90;;;;;;5048723;28;20135;-67
2022/01/19 11:23:06;;;;;;;60.33;39.03;;;4.70;99.90;;;;;;5056108;28;20049;-67
2022/01/19 11:26:11;;;;;;;62.58;39.05;;;4.70;99.90;;;;;;5001023;28;20494;-67
2022/01/19 11:28:46;;;;;;;71.07;41.50;;;4.70;99.90;;;;;;4984372;28;20124;-67
2022/01/19 11:31:14;;;;;;;71.28;41.58;;;4.60;99.90;;;;;;5055937;28;20059;-67
2022/01/19 11:33:44;;;;;;;66.72;43.75;;;4.70;99.90;;;;;;5065060;28;20053;-67
2022/01/19 11:36:24;;;;;;;75.63;44.90;;;4.70;99.90;;;;;;5065405;28;20041;-67
2022/01/19 11:39:07;;;;;;;73.55;45.22;;;4.70;99.90;;;;;;5064638;28;20032;-67
2022/01/19 11:41:42;;;;;;;78.25;45.33;;;4.70;99.90;;;;;;5057713;28;20432;-67
2022/01/19 11:44:12;;;;;;;80.38;46.55;;;4.70;99.90;;;;;;5058949;28;20119;-67
2022/01/19 11:46:43;;;;;;;79.72;47.58;;;4.70;99.90;;;;;;5058703;28;20036;-67
2022/01/19 11:49:13;;;;;;;83.03;45.88;;;4.70;99.90;;;;;;5057557;28;20130;-67
2022/01/19 11:51:42;;;;;;;72.80;43.45;;;4.70;99.90;;;;;;5055973;28;20424;-66
2022/01/19 11:54:16;;;;;;;80.93;48.05;;;4.80;99.90;;;;;;5061649;28;20076;-67
2022/01/19 11:57:02;;;;;;;82.80;48.63;;;4.80;99.90;;;;;;5060024;28;20354;-67
2022/01/19 11:59:46;;;;;;;76.70;45.72;;;4.80;99.90;;;;;;5061342;28;20618;-67
2022/01/19 12:02:20;;;;;;;76.20;48.17;;;4.80;99.90;;;;;;5058912;28;20071;-67
2022/01/19 12:05:10;;;;;;;82.43;46.70;;;4.90;99.90;;;;;;5054971;28;20045;-67
2022/01/19 12:07:37;;;;;;;81.38;47.10;;;4.90;99.90;;;;;;5049618;28;20048;-67
2022/01/19 12:10:15;;;;;;;76.60;45.67;;;4.90;99.90;;;;;;5060355;28;20040;-67
2022/01/19 12:13:08;;;;;;;80.95;48.13;;;5.00;99.90;;;;;;5060062;28;20071;-67
2022/01/19 12:15:50;;;;;;;78.43;46.92;;;5.00;99.90;;;;;;5056748;28;20091;-66
2022/01/19 12:18:38;;;;;;;76.15;47.05;;;5.00;99.90;;;;;;5054491;28;20122;-67
2022/01/19 12:21:04;;;;;;;77.72;47.95;;;5.00;99.90;;;;;;5057983;28;20041;-67
2022/01/19 12:23:35;;;;;;;78.68;47.40;;;5.00;99.90;;;;;;5062560;28;20040;-67
2022/01/19 12:26:02;;;;;;;76.55;46.08;;;5.00;99.90;;;;;;5059384;28;20373;-67
2022/01/19 12:28:49;;;;;;;77.60;47.78;;;5.00;99.90;;;;;;5057240;28;20041;-67
2022/01/19 12:31:32;;;;;;;75.68;47.97;;;5.10;99.90;;;;;;5062946;28;20501;-67
2022/01/19 12:34:09;;;;;;;75.85;46.17;;;5.10;99.90;;;;;;5056934;28;20049;-67
2022/01/19 12:36:52;;;;;;;80.75;48.58;;;5.10;99.90;;;;;;5062388;28;20554;-67
2022/01/19 12:39:27;;;;;;;72.55;46.22;;;5.10;99.90;;;;;;5059044;28;20056;-66
2022/01/19 12:42:00;;;;;;;75.53;47.15;;;5.10;99.90;;;;;;5057019;28;20129;-66
2022/01/19 12:44:34;;;;;;;76.95;46.40;;;5.10;99.90;;;;;;5063398;28;20032;-66
2022/01/19 12:47:00;;;;;;;;;;;5.10;99.90;;;;;;5054566;28;20657;-66
2022/01/19 12:49:28;;;;;;;73.60;43.50;;;5.10;99.90;;;;;;5055270;28;19964;-67
2022/01/19 12:51:54;;;;;;;75.18;44.85;;;5.10;99.90;;;;;;5053502;28;20053;-66
2022/01/19 12:54:26;;;;;;;75.75;44.08;;;5.10;99.90;;;;;;5058599;28;20408;-66
2022/01/19 12:56:55;;;;;;;75.28;45.72;;;5.10;99.90;;;;;;5061846;28;20036;-66
2022/01/19 12:59:20;;;;;;;70.63;46.17;;;5.10;99.90;;;;;;5059905;28;20040;-66
2022/01/19 13:01:46;;;;;;;71.25;44.15;;;5.10;99.90;;;;;;5056014;28;20346;-66
2022/01/19 13:04:23;;;;;;;71.43;44.00;;;5.20;99.90;;;;;;5054455;28;20049;-66
2022/01/19 13:06:49;;;;;;;75.15;44.13;;;5.10;99.90;;;;;;5058622;28;20045;-66
2022/01/19 13:09:25;;;;;;;70.30;43.15;;;5.20;99.90;;;;;;5057411;28;20036;-66
2022/01/19 13:11:54;;;;;;;66.65;44.72;;;5.20;99.90;;;;;;5071005;28;20346;-66
2022/01/19 13:14:19;;;;;;;67.75;44.08;;;5.20;99.90;;;;;;5060906;28;20049;-66
2022/01/19 13:16:47;;;;;;;67.22;42.75;;;5.20;99.90;;;;;;5060861;28;20508;-66
2022/01/19 13:19:27;;;;;;;70.90;43.78;;;5.20;99.90;;;;;;5066567;28;20691;-67
2022/01/19 13:22:02;;;;;;;74.97;44.10;;;5.20;99.90;;;;;;5060429;28;20057;-67
2022/01/19 13:24:31;;;;;;;66.55;42.45;;;5.30;99.90;;;;;;5067465;28;20048;-67
2022/01/19 13:27:06;;;;;;;66.07;43.15;;;5.30;99.90;;;;;;5059974;28;20068;-67
2022/01/19 13:29:39;;;;;;;67.55;40.85;;;5.30;99.90;;;;;;5059061;28;20517;-67
2022/01/19 13:32:14;;;;;;;59.40;40.65;;;5.40;99.90;;;;;;5068646;28;20040;-67
2022/01/19 13:34:59;;;;;;;64.85;41.25;;;5.40;99.90;;;;;;5063568;28;20123;-67
2022/01/19 13:37:33;;;;;;;63.92;39.97;;;5.40;99.90;;;;;;5063385;28;20048;-67
2022/01/19 13:40:04;;;;;;;60.90;38.38;;;5.50;99.90;;;;;;5063878;28;20487;-67
2022/01/19 13:42:41;;;;;;;58.75;38.53;;;5.50;99.90;;;;;;5067985;28;20068;-67
2022/01/19 13:45:18;;;;;;;59.00;39.03;;;5.60;99.90;;;;;;5063674;28;20103;-67
2022/01/19 13:50:51;;;;;;;58.42;36.08;;;5.60;99.90;;;;;;5063184;28;20502;-67
2022/01/19 13:53:28;;;;;;;55.25;36.63;;;5.60;99.90;;;;;;5064501;28;20162;-67
2022/01/19 13:55:56;;;;;;;54.75;36.60;;;5.50;99.90;;;;;;5062379;28;20048;-67
2022/01/19 13:58:29;;;;;;;54.75;34.78;;;5.60;99.90;;;;;;5060618;28;20057;-67
2022/01/19 14:01:00;;;;;;;53.03;35.05;;;5.50;99.90;;;;;;5057376;28;20048;-67
2022/01/19 14:03:51;;;;;;;54.10;33.55;;;5.50;99.90;;;;;;5062049;28;20040;-67
2022/01/19 14:06:23;;;;;;;51.63;34.20;;;5.50;99.90;;;;;;5061689;28;20158;-67
2022/01/19 14:08:49;;;;;;;52.28;34.45;;;5.50;99.90;;;;;;5067742;28;20170;-67
2022/01/19 14:11:25;;;;;;;50.33;32.17;;;5.40;99.90;;;;;;5066885;28;20134;-67
2022/01/19 14:14:02;;;;;;;52.20;33.13;;;5.60;99.90;;;;;;5064136;28;20059;-67
2022/01/19 14:16:38;;;;;;;49.65;32.92;;;5.50;99.90;;;;;;5061278;28;20052;-67
2022/01/19 14:19:12;;;;;;;49.42;33.03;;;5.50;99.90;;;;;;5066719;28;20088;-67
2022/01/19 14:22:13;;;;;;;50.05;36.13;;;5.50;99.90;;;;;;5064434;28;20064;-67
2022/01/19 14:24:56;;;;;;;56.28;34.03;;;5.50;99.90;;;;;;5068478;28;20031;-67
2022/01/19 14:27:24;;;;;;;51.97;33.42;;;5.50;99.90;;;;;;5065742;28;20495;-67